Time;durP1;ratioP1;P1;durP2;ratioP2;P2;SDS_P1;SDS_P2;PMS_P1;PMS_P2;Temp;Humidity;BMP_temperature;BMP_pressure;BME280_temperature;BME280_humidity;BME280_pressure;Samples;Min_cycle;Max_cycle;Signal;HPM_P1;HPM_P2
2021/12/17 00:00:46;;;;;;;10.53;4.00;;;;;;;;;;5096015;28;20455;-73
2021/12/17 00:03:20;;;;;;;13.07;4.03;;;;;;;;;;5079436;28;20525;-73
2021/12/17 00:08:29;;;;;;;6.93;3.37;;;;;;;;;;5073123;28;20451;-73
2021/12/17 00:10:56;;;;;;;7.03;3.60;;;;;;;;;;5081498;28;20578;-73
2021/12/17 00:13:23;;;;;;;9.60;5.03;;;;;;;;;;5094259;28;20451;-73
2021/12/17 00:15:50;;;;;;;9.30;4.10;;;;;;;;;;5090119;28;20447;-73
2021/12/17 00:18:23;;;;;;;4.10;3.10;;;;;;;;;;5088215;28;20463;-73
2021/12/17 00:48:46;;;;;;;10.90;4.70;;;;;;;;;;5085589;28;20451;-73
2021/12/17 00:54:00;;;;;;;7.60;4.50;;;;;;;;;;5085012;28;20454;-73
2021/12/17 00:56:28;;;;;;;8.10;5.00;;;;;;;;;;5087592;28;20460;-73
2021/12/17 00:58:55;;;;;;;9.43;4.10;;;;;;;;;;5092973;28;20451;-73
2021/12/17 01:01:22;;;;;;;8.93;4.97;;;;;;;;;;5081488;28;20475;-73
2021/12/17 01:03:50;;;;;;;8.20;5.20;;;;;;;;;;5093792;28;20577;-73
2021/12/17 01:06:17;;;;;;;6.97;4.70;;;;;;;;;;5086760;28;20459;-73
2021/12/17 01:08:44;;;;;;;8.93;4.50;;;;;;;;;;5085069;28;20482;-72
2021/12/17 01:11:11;;;;;;;9.43;4.73;;;;;;;;;;5094010;28;20908;-73
2021/12/17 01:13:40;;;;;;;10.67;5.33;;;;;;;;;;5081621;28;20462;-73
2021/12/17 01:16:07;;;;;;;9.27;4.73;;;;;;;;;;5090828;28;20441;-74
2021/12/17 01:18:46;;;;;;;7.53;4.53;;;;;;;;;;5089404;28;20549;-74
2021/12/17 01:21:28;;;;;;;10.30;5.13;;;;;;;;;;5097801;28;20455;-73
2021/12/17 01:43:39;;;;;;;11.30;6.50;;;;;;;;;;5092439;28;20443;-74
2021/12/17 01:46:12;;;;;;;13.53;6.93;;;;;;;;;;5079566;28;20468;-74
2021/12/17 01:48:55;;;;;;;16.20;7.83;;;;;;;;;;5090252;28;20448;-73
2021/12/17 01:56:58;;;;;;;14.13;8.03;;;;;;;;;;5092796;28;20520;-73
2021/12/17 01:59:32;;;;;;;15.70;8.33;;;;;;;;;;5077338;28;20835;-73
2021/12/17 02:02:02;;;;;;;12.40;7.33;;;;;;;;;;5078485;28;20461;-73
2021/12/17 02:04:39;;;;;;;15.20;7.43;;;;;;;;;;5093706;28;20455;-73
2021/12/17 02:07:07;;;;;;;14.70;8.07;;;;;;;;;;5084414;28;20918;-73
2021/12/17 02:21:24;;;;;;;15.87;8.23;;;;;;;;;;5015570;28;20502;-74
2021/12/17 02:29:56;;;;;;;14.00;8.00;;;;;;;;;;5077746;28;20906;-73
2021/12/17 02:32:25;;;;;;;22.03;7.40;;;;;;;;;;5077221;28;20492;-73
2021/12/17 02:35:17;;;;;;;16.07;8.40;;;;;;;;;;5076968;28;20829;-73
2021/12/17 02:37:46;;;;;;;12.00;6.80;;;;;;;;;;5077711;28;20790;-73
2021/12/17 02:42:23;;;;;;;19.47;9.10;;;;;;;;;;5076462;28;20453;-73
2021/12/17 02:45:48;;;;;;;14.77;6.13;;;;;;;;;;5076877;28;20467;-73
2021/12/17 02:48:16;;;;;;;15.13;7.27;;;;;;;;;;5077700;28;20460;-73
2021/12/17 02:50:45;;;;;;;10.83;6.50;;;;;;;;;;5076571;28;20477;-73
2021/12/17 02:53:12;;;;;;;12.57;6.03;;;;;;;;;;5076867;28;20452;-73
2021/12/17 02:55:41;;;;;;;9.37;4.33;;;;;;;;;;5077796;28;20729;-73
2021/12/17 02:58:09;;;;;;;12.73;6.20;;;;;;;;;;5077951;28;20458;-74
2021/12/17 03:00:37;;;;;;;8.80;4.00;;;;;;;;;;5076760;28;20452;-73
2021/12/17 03:03:05;;;;;;;6.40;2.83;;;;;;;;;;5076736;28;20471;-73
2021/12/17 03:05:33;;;;;;;13.20;3.70;;;;;;;;;;5076282;28;20448;-73
2021/12/17 03:08:13;;;;;;;9.23;5.10;;;;;;;;;;5076956;28;20460;-73
2021/12/17 03:10:43;;;;;;;8.93;4.93;;;;;;;;;;5075979;28;20487;-73
2021/12/17 03:13:16;;;;;;;12.67;6.77;;;;;;;;;;5077101;28;20457;-73
2021/12/17 03:15:48;;;;;;;10.30;5.53;;;;;;;;;;5076310;28;20775;-73
2021/12/17 03:23:46;;;;;;;9.77;6.50;;;;;;;;;;5076831;28;20455;-73
2021/12/17 03:26:15;;;;;;;7.57;4.40;;;;;;;;;;5077089;28;20581;-74
2021/12/17 03:28:42;;;;;;;6.93;4.13;;;;;;;;;;5076815;28;20468;-73
2021/12/17 03:31:10;;;;;;;11.73;4.83;;;;;;;;;;5075689;28;20492;-73
2021/12/17 03:33:41;;;;;;;11.53;5.67;;;;;;;;;;5076455;28;20467;-73
2021/12/17 03:36:09;;;;;;;10.67;4.60;;;;;;;;;;5076430;28;20565;-73
2021/12/17 03:38:36;;;;;;;9.50;5.30;;;;;;;;;;5076221;28;20456;-73
2021/12/17 03:41:15;;;;;;;9.67;4.30;;;;;;;;;;5075757;28;20464;-73
2021/12/17 03:43:43;;;;;;;9.20;4.83;;;;;;;;;;5075164;28;20456;-73
2021/12/17 03:46:10;;;;;;;7.67;4.07;;;;;;;;;;5075315;28;20456;-74
2021/12/17 03:48:39;;;;;;;7.53;5.03;;;;;;;;;;5075886;28;20464;-73
2021/12/17 03:51:11;;;;;;;7.67;4.20;;;;;;;;;;5075376;28;20514;-73
2021/12/17 03:53:38;;;;;;;7.93;4.10;;;;;;;;;;5077933;28;20517;-73
2021/12/17 03:56:06;;;;;;;5.90;2.93;;;;;;;;;;5079346;28;20487;-73
2021/12/17 03:58:33;;;;;;;6.50;3.27;;;;;;;;;;5078979;28;20468;-73
2021/12/17 04:01:00;;;;;;;6.97;3.20;;;;;;;;;;5078735;28;20525;-73
2021/12/17 04:03:27;;;;;;;10.63;4.40;;;;;;;;;;5079629;28;20460;-73
2021/12/17 04:05:54;;;;;;;7.00;2.90;;;;;;;;;;5079324;28;20441;-73
2021/12/17 04:08:21;;;;;;;5.57;3.07;;;;;;;;;;5078938;28;20452;-74
2021/12/17 04:10:51;;;;;;;5.07;2.73;;;;;;;;;;5079803;28;20788;-73
2021/12/17 04:13:30;;;;;;;9.93;3.93;;;;;;;;;;5079357;28;20460;-73
2021/12/17 04:15:59;;;;;;;6.43;3.10;;;;;;;;;;5078847;28;20463;-73
2021/12/17 04:18:27;;;;;;;6.80;3.40;;;;;;;;;;5078887;28;20517;-73
2021/12/17 04:20:54;;;;;;;6.80;3.30;;;;;;;;;;5078231;28;20448;-73
2021/12/17 04:23:22;;;;;;;8.67;4.00;;;;;;;;;;5079085;28;20479;-73
2021/12/17 04:25:49;;;;;;;7.50;3.60;;;;;;;;;;5078547;28;20544;-73
2021/12/17 04:28:16;;;;;;;7.10;4.33;;;;;;;;;;5078633;28;20551;-73
2021/12/17 04:30:43;;;;;;;8.17;3.90;;;;;;;;;;5078303;28;20441;-73
2021/12/17 04:33:10;;;;;;;8.77;4.17;;;;;;;;;;5077918;28;20510;-73
2021/12/17 04:35:41;;;;;;;6.97;3.40;;;;;;;;;;5078666;28;20884;-75
2021/12/17 04:38:09;;;;;;;6.40;3.00;;;;;;;;;;5078686;28;20630;-73
2021/12/17 04:40:37;;;;;;;9.97;4.00;;;;;;;;;;5078324;28;20502;-73
2021/12/17 04:43:23;;;;;;;5.13;2.60;;;;;;;;;;5079225;28;20460;-73
2021/12/17 04:45:59;;;;;;;5.63;3.37;;;;;;;;;;5079144;28;20448;-73
2021/12/17 04:59:27;;;;;;;8.77;3.60;;;;;;;;;;5078533;28;20559;-72
2021/12/17 05:02:01;;;;;;;6.73;4.07;;;;;;;;;;5078883;28;20486;-73
2021/12/17 05:04:28;;;;;;;5.40;3.03;;;;;;;;;;5077186;28;20461;-73
2021/12/17 05:06:55;;;;;;;7.50;4.40;;;;;;;;;;5078559;28;20528;-72
2021/12/17 05:09:30;;;;;;;6.87;3.50;;;;;;;;;;5078410;28;20479;-72
2021/12/17 05:20:29;;;;;;;5.33;3.10;;;;;;;;;;5077690;28;20444;-72
2021/12/17 05:22:58;;;;;;;10.10;3.37;;;;;;;;;;5078090;28;20447;-73
2021/12/17 05:25:26;;;;;;;5.90;3.30;;;;;;;;;;5077453;28;20521;-73
2021/12/17 05:27:55;;;;;;;6.73;3.37;;;;;;;;;;5077196;28;20455;-73
2021/12/17 05:30:22;;;;;;;5.30;3.80;;;;;;;;;;5077866;28;20470;-73
2021/12/17 05:32:50;;;;;;;7.93;4.00;;;;;;;;;;5077941;28;20942;-72
2021/12/17 05:35:17;;;;;;;7.70;3.57;;;;;;;;;;5077979;28;20834;-73
2021/12/17 05:37:44;;;;;;;6.77;3.50;;;;;;;;;;5077201;28;20728;-73
2021/12/17 05:40:13;;;;;;;6.00;3.57;;;;;;;;;;5077718;28;20463;-73
2021/12/17 05:42:41;;;;;;;6.90;4.20;;;;;;;;;;5077595;28;20457;-72
2021/12/17 05:47:53;;;;;;;7.73;3.80;;;;;;;;;;5076575;28;20453;-72
2021/12/17 05:50:34;;;;;;;7.30;4.40;;;;;;;;;;5077717;28;21017;-75
2021/12/17 05:53:01;;;;;;;6.50;2.80;;;;;;;;;;5077314;28;20783;-72
2021/12/17 05:55:29;;;;;;;7.57;2.90;;;;;;;;;;5076651;28;20874;-73
2021/12/17 05:58:02;;;;;;;6.10;3.90;;;;;;;;;;5077189;28;20856;-73
2021/12/17 06:00:30;;;;;;;5.67;3.13;;;;;;;;;;5076763;28;20457;-74
2021/12/17 06:02:57;;;;;;;7.43;4.23;;;;;;;;;;5076636;28;20448;-73
2021/12/17 06:05:25;;;;;;;6.23;4.10;;;;;;;;;;5083811;28;20447;-73
2021/12/17 06:07:55;;;;;;;7.33;3.30;;;;;;;;;;5095628;28;20450;-73
2021/12/17 06:10:22;;;;;;;7.90;4.23;;;;;;;;;;5097348;28;20466;-74
2021/12/17 06:12:50;;;;;;;10.03;4.20;;;;;;;;;;5096603;28;20495;-74
2021/12/17 06:15:29;;;;;;;6.90;4.60;;;;;;;;;;5095074;28;20466;-73
2021/12/17 06:17:56;;;;;;;7.57;3.60;;;;;;;;;;5096520;28;20452;-74
2021/12/17 06:20:24;;;;;;;5.93;3.00;;;;;;;;;;5090128;28;20459;-73
2021/12/17 06:22:51;;;;;;;8.37;4.27;;;;;;;;;;5094865;28;20454;-73
2021/12/17 06:25:18;;;;;;;10.33;3.90;;;;;;;;;;5095703;28;20459;-73
2021/12/17 06:27:45;;;;;;;4.17;2.43;;;;;;;;;;5095519;28;20547;-73
2021/12/17 06:30:14;;;;;;;5.70;3.13;;;;;;;;;;5093399;28;21091;-72
2021/12/17 06:32:41;;;;;;;4.77;2.93;;;;;;;;;;5094008;28;20908;-72
2021/12/17 06:35:08;;;;;;;6.90;3.43;;;;;;;;;;5092598;28;20538;-74
2021/12/17 06:37:37;;;;;;;5.53;3.07;;;;;;;;;;5078557;28;20436;-74
2021/12/17 06:40:05;;;;;;;4.40;2.33;;;;;;;;;;5091401;28;20451;-73
2021/12/17 06:42:34;;;;;;;7.20;4.10;;;;;;;;;;5091904;28;20443;-74
2021/12/17 06:45:05;;;;;;;7.70;4.80;;;;;;;;;;5078458;28;20624;-73
2021/12/17 06:47:36;;;;;;;9.00;4.70;;;;;;;;;;5077254;28;20439;-73
2021/12/17 06:56:02;;;;;;;8.37;4.20;;;;;;;;;;5075724;28;20443;-74
2021/12/17 07:01:21;;;;;;;6.70;2.80;;;;;;;;;;5087809;28;20883;-73
2021/12/17 07:07:07;;;;;;;8.80;4.67;;;;;;;;;;5017846;28;20450;-73
2021/12/17 07:10:03;;;;;;;10.30;4.00;;;;;;;;;;5072435;28;20564;-73
2021/12/17 07:18:43;;;;;;;9.87;5.10;;;;;;;;;;5075350;28;20448;-72
2021/12/17 07:35:13;;;;;;;7.77;4.20;;;;;;;;;;5076982;28;20505;-74
2021/12/17 07:40:26;;;;;;;10.07;5.00;;;;;;;;;;5074832;28;20455;-73
2021/12/17 07:42:54;;;;;;;9.77;4.80;;;;;;;;;;5088122;28;20490;-73
2021/12/17 07:45:21;;;;;;;8.60;5.33;;;;;;;;;;5083762;28;20884;-73
2021/12/17 07:47:48;;;;;;;9.67;5.53;;;;;;;;;;5079670;28;20447;-73
2021/12/17 07:50:17;;;;;;;7.50;3.50;;;;;;;;;;5081972;28;21019;-73
2021/12/17 07:52:55;;;;;;;7.90;4.87;;;;;;;;;;5099384;28;20483;-73
2021/12/17 07:55:25;;;;;;;11.80;4.50;;;;;;;;;;5094495;28;20484;-74
2021/12/17 07:57:53;;;;;;;8.37;4.53;;;;;;;;;;5081266;28;20875;-74
2021/12/17 08:00:20;;;;;;;6.00;3.40;;;;;;;;;;5073606;28;20457;-75
2021/12/17 08:02:49;;;;;;;9.00;3.43;;;;;;;;;;5086844;28;20489;-73
2021/12/17 08:05:19;;;;;;;7.17;3.80;;;;;;;;;;5093732;28;20487;-74
2021/12/17 08:07:47;;;;;;;6.40;3.90;;;;;;;;;;5093644;28;20483;-74
2021/12/17 08:10:20;;;;;;;5.53;3.40;;;;;;;;;;5084126;28;20461;-75
2021/12/17 08:12:55;;;;;;;6.10;4.30;;;;;;;;;;5082160;28;20571;-75
2021/12/17 08:15:57;;;;;;;6.30;3.30;;;;;;;;;;5081599;28;20889;-75
2021/12/17 08:18:46;;;;;;;3.97;1.87;;;;;;;;;;5076927;28;20455;-74
2021/12/17 08:27:22;;;;;;;9.43;3.63;;;;;;;;;;5087997;28;20429;-74
2021/12/17 08:29:56;;;;;;;5.70;2.90;;;;;;;;;;5079847;28;20532;-75
2021/12/17 08:32:28;;;;;;;7.50;2.73;;;;;;;;;;5090314;28;20488;-74
2021/12/17 08:34:56;;;;;;;3.47;2.30;;;;;;;;;;5083968;28;20495;-74
2021/12/17 08:37:23;;;;;;;5.20;2.90;;;;;;;;;;5078946;28;20448;-74
2021/12/17 08:39:51;;;;;;;5.53;2.63;;;;;;;;;;5081650;28;20712;-74
2021/12/17 08:42:35;;;;;;;4.50;2.67;;;;;;;;;;5079509;28;20441;-74
2021/12/17 08:48:16;;;;;;;3.83;2.10;;;;;;;;;;5069502;28;20467;-74
2021/12/17 08:50:53;;;;;;;4.17;2.07;;;;;;;;;;5076297;28;20445;-74
2021/12/17 08:53:24;;;;;;;6.30;2.30;;;;;;;;;;5088162;28;21052;-74
2021/12/17 08:55:54;;;;;;;7.50;2.57;;;;;;;;;;5086741;28;20444;-73
2021/12/17 08:58:47;;;;;;;7.53;3.33;;;;;;;;;;5089497;28;20451;-74
2021/12/17 09:01:15;;;;;;;5.40;2.87;;;;;;;;;;5080335;28;20461;-74
2021/12/17 09:03:42;;;;;;;6.70;2.77;;;;;;;;;;5076320;28;20464;-72
2021/12/17 09:06:09;;;;;;;3.73;2.27;;;;;;;;;;5075844;28;20459;-73
2021/12/17 09:08:37;;;;;;;5.07;2.40;;;;;;;;;;5076131;28;20563;-74
2021/12/17 09:11:06;;;;;;;5.70;2.87;;;;;;;;;;5076054;28;20478;-73
2021/12/17 09:13:33;;;;;;;5.60;2.63;;;;;;;;;;5078614;28;20491;-74
2021/12/17 09:16:04;;;;;;;4.97;2.67;;;;;;;;;;5085519;28;20602;-74
2021/12/17 09:18:32;;;;;;;4.50;3.03;;;;;;;;;;5077558;28;20880;-74
2021/12/17 09:20:59;;;;;;;3.53;2.67;;;;;;;;;;5080337;28;20457;-74
2021/12/17 09:23:38;;;;;;;6.13;3.50;;;;;;;;;;5086042;28;20543;-75
2021/12/17 09:26:07;;;;;;;6.27;2.97;;;;;;;;;;5086472;28;20447;-74
2021/12/17 09:28:43;;;;;;;6.90;4.77;;;;;;;;;;5080404;28;20468;-74
2021/12/17 09:31:17;;;;;;;8.80;5.57;;;;;;;;;;5077277;28;20593;-76
2021/12/17 09:34:12;;;;;;;8.10;5.07;;;;;;;;;;5080460;28;20460;-74
2021/12/17 09:36:52;;;;;;;8.40;4.37;;;;;;;;;;5083880;28;20923;-75
2021/12/17 09:39:28;;;;;;;7.50;4.70;;;;;;;;;;5082990;28;20557;-73
2021/12/17 09:41:57;;;;;;;6.23;3.70;;;;;;;;;;5074841;28;20516;-73
2021/12/17 09:44:25;;;;;;;7.40;4.70;;;;;;;;;;5072901;28;20448;-74
2021/12/17 09:47:37;;;;;;;9.23;4.60;;;;;;;;;;5081957;28;20495;-73
2021/12/17 09:50:34;;;;;;;7.47;5.43;;;;;;;;;;5074577;28;20725;-75
2021/12/17 09:53:16;;;;;;;7.07;4.80;;;;;;;;;;5075522;28;20500;-75
2021/12/17 09:55:47;;;;;;;8.80;4.00;;;;;;;;;;5075631;28;20456;-75
2021/12/17 10:01:23;;;;;;;10.03;5.13;;;;;;;;;;5072208;28;20456;-75
2021/12/17 10:04:14;;;;;;;7.57;4.00;;;;;;;;;;5087400;28;20456;-74
2021/12/17 10:07:08;;;;;;;9.67;4.97;;;;;;;;;;5086708;28;20491;-74
2021/12/17 10:09:35;;;;;;;5.90;3.73;;;;;;;;;;5075588;28;20973;-74
2021/12/17 10:12:10;;;;;;;8.47;4.60;;;;;;;;;;5083355;28;20475;-75
2021/12/17 10:14:59;;;;;;;7.37;4.30;;;;;;;;;;5093826;28;20744;-74
2021/12/17 10:23:29;;;;;;;28.10;14.07;;;;;;;;;;4744653;28;8061151;-74
2021/12/17 10:32:29;;;;;;;6.07;3.87;;;;;;;;;;5046095;28;20477;-73
2021/12/17 10:35:18;;;;;;;8.10;5.53;;;;;;;;;;5068269;28;20448;-72
2021/12/17 10:37:49;;;;;;;6.37;5.17;;;;;;;;;;5057388;28;20585;-74
2021/12/17 10:43:47;;;;;;;8.80;5.07;;;;;;;;;;5063918;28;20904;-74
2021/12/17 10:46:23;;;;;;;8.50;4.77;;;;;;;;;;5057885;28;20486;-73
2021/12/17 10:49:02;;;;;;;14.73;7.23;;;;;;;;;;5060857;28;20539;-74
2021/12/17 10:51:44;;;;;;;9.03;6.70;;;;;;;;;;5062890;28;20492;-74
2021/12/17 10:54:13;;;;;;;10.53;6.60;;;;;;;;;;5059330;28;20549;-74
2021/12/17 10:56:48;;;;;;;9.93;6.90;;;;;;;;;;5063652;28;20521;-73
2021/12/17 10:59:31;;;;;;;9.90;5.40;;;;;;;;;;5063415;28;20452;-72
2021/12/17 11:04:51;;;;;;;10.90;7.33;;;;;;;;;;5045957;28;20434;-74
2021/12/17 11:07:19;;;;;;;15.60;9.00;;;;;;;;;;5063407;28;20468;-73
2021/12/17 11:09:50;;;;;;;10.67;6.70;;;;;;;;;;5067703;28;20875;-74
2021/12/17 11:12:30;;;;;;;14.30;6.20;;;;;;;;;;5067295;28;20487;-75
2021/12/17 11:15:08;;;;;;;10.70;7.90;;;;;;;;;;5072987;28;20455;-73
2021/12/17 11:17:42;;;;;;;9.70;6.67;;;;;;;;;;5070714;28;20471;-74
2021/12/17 11:20:24;;;;;;;8.90;5.37;;;;;;;;;;5070286;28;21132;-74
2021/12/17 11:23:03;;;;;;;15.67;8.37;;;;;;;;;;5073148;28;20539;-75
2021/12/17 11:25:36;;;;;;;5.90;4.10;;;;;;;;;;5059932;28;20461;-73
2021/12/17 11:28:15;;;;;;;9.17;5.60;;;;;;;;;;5053198;28;20543;-74
2021/12/17 11:30:54;;;;;;;10.73;6.83;;;;;;;;;;5057911;28;20441;-75
2021/12/17 11:33:34;;;;;;;9.47;5.23;;;;;;;;;;5053371;28;20961;-72
2021/12/17 11:36:20;;;;;;;10.00;6.77;;;;;;;;;;5054453;28;20449;-75
2021/12/17 11:39:05;;;;;;;10.37;5.20;;;;;;;;;;5051974;28;20520;-75
2021/12/17 11:41:52;;;;;;;9.13;5.40;;;;;;;;;;5065079;28;20740;-74
2021/12/17 11:44:40;;;;;;;8.27;5.60;;;;;;;;;;5052950;28;20461;-76
2021/12/17 11:47:09;;;;;;;8.40;5.13;;;;;;;;;;5053618;28;20470;-74
2021/12/17 11:49:39;;;;;;;12.50;6.83;;;;;;;;;;5053171;28;20461;-74
2021/12/17 11:52:12;;;;;;;15.03;7.67;;;;;;;;;;5052600;28;20987;-75
2021/12/17 11:54:40;;;;;;;11.60;6.37;;;;;;;;;;5053381;28;20450;-73
2021/12/17 11:57:09;;;;;;;6.93;4.30;;;;;;;;;;5054342;28;20862;-73
2021/12/17 11:59:39;;;;;;;9.00;4.83;;;;;;;;;;5054398;28;20465;-74
2021/12/17 12:02:11;;;;;;;8.60;4.97;;;;;;;;;;5052065;28;20561;-74
2021/12/17 12:04:44;;;;;;;10.60;6.93;;;;;;;;;;5052954;28;20458;-74
2021/12/17 12:07:18;;;;;;;9.00;5.03;;;;;;;;;;5052453;28;20854;-74
2021/12/17 12:10:01;;;;;;;7.10;4.70;;;;;;;;;;5054256;28;20499;-73
2021/12/17 12:12:32;;;;;;;5.97;4.10;;;;;;;;;;5054762;28;20933;-74
2021/12/17 12:15:31;;;;;;;9.67;6.00;;;;;;;;;;5061145;28;20475;-73
2021/12/17 12:18:23;;;;;;;7.77;4.97;;;;;;;;;;5014975;28;20518;-74
2021/12/17 12:21:09;;;;;;;7.70;4.40;;;;;;;;;;4998870;28;20903;-74
2021/12/17 12:23:39;;;;;;;7.07;4.30;;;;;;;;;;4997299;28;20558;-74
2021/12/17 12:26:52;;;;;;;7.43;4.70;;;;;;;;;;4997539;28;20573;-74
2021/12/17 12:29:24;;;;;;;7.90;5.13;;;;;;;;;;5007983;28;21064;-73
2021/12/17 12:32:09;;;;;;;6.33;4.30;;;;;;;;;;5018911;28;20490;-75
2021/12/17 12:34:46;;;;;;;13.53;4.97;;;;;;;;;;5073953;28;20945;-75
2021/12/17 12:37:35;;;;;;;5.30;3.83;;;;;;;;;;5066898;28;20448;-74
2021/12/17 12:40:16;;;;;;;7.03;3.93;;;;;;;;;;5060949;28;20626;-73
2021/12/17 12:42:55;;;;;;;16.20;5.27;;;;;;;;;;5055955;28;21029;-74
2021/12/17 12:45:23;;;;;;;7.90;4.67;;;;;;;;;;5056875;28;20451;-73
2021/12/17 12:48:15;;;;;;;7.80;4.60;;;;;;;;;;5058264;28;20537;-74
2021/12/17 12:50:45;;;;;;;5.20;3.00;;;;;;;;;;5056010;28;20548;-74
2021/12/17 12:53:16;;;;;;;7.20;3.90;;;;;;;;;;5060472;28;20493;-75
2021/12/17 12:55:56;;;;;;;4.50;2.93;;;;;;;;;;5057085;28;20465;-75
2021/12/17 13:07:13;;;;;;;4.93;3.80;;;;;;;;;;5073333;28;20463;-73
2021/12/17 13:09:43;;;;;;;4.40;3.43;;;;;;;;;;5075489;28;20558;-73
2021/12/17 13:12:22;;;;;;;4.90;3.17;;;;;;;;;;5063487;28;20480;-74
2021/12/17 13:14:56;;;;;;;3.80;2.97;;;;;;;;;;5056481;28;20457;-73
2021/12/17 13:20:15;;;;;;;11.27;5.67;;;;;;;;;;5055103;28;20444;-74
2021/12/17 13:20:53;;;;;;;5.13;4.00;;;;;;;;;;5055182;28;20464;-74
2021/12/17 13:23:25;;;;;;;7.77;4.33;;;;;;;;;;5066728;28;20453;-73
2021/12/17 13:26:15;;;;;;;6.53;4.93;;;;;;;;;;5070338;28;20521;-74
2021/12/17 13:29:09;;;;;;;9.00;5.90;;;;;;;;;;5054917;28;20549;-74
2021/12/17 13:31:41;;;;;;;9.83;6.57;;;;;;;;;;5056710;28;20450;-74
2021/12/17 13:34:11;;;;;;;6.97;4.47;;;;;;;;;;5057646;28;20587;-73
2021/12/17 13:36:48;;;;;;;5.40;3.70;;;;;;;;;;5056025;28;20477;-74
2021/12/17 13:39:25;;;;;;;8.23;4.33;;;;;;;;;;5057554;28;20503;-73
2021/12/17 13:45:04;;;;;;;10.90;6.03;;;;;;;;;;5053185;28;20462;-73
2021/12/17 13:51:06;;;;;;;9.57;5.93;;;;;;;;;;4934719;29;20545;-73
2021/12/17 13:53:39;;;;;;;7.53;5.23;;;;;;;;;;4940855;29;21204;-73
2021/12/17 13:56:16;;;;;;;7.50;3.90;;;;;;;;;;5039850;28;20453;-73
2021/12/17 13:58:47;;;;;;;5.30;3.60;;;;;;;;;;5061418;28;20464;-73
2021/12/17 14:01:24;;;;;;;6.17;4.03;;;;;;;;;;5065530;28;20457;-74
2021/12/17 14:04:28;;;;;;;6.07;4.33;;;;;;;;;;5057955;28;20453;-72
2021/12/17 14:07:01;;;;;;;5.20;3.53;;;;;;;;;;5058499;28;20516;-74
2021/12/17 14:09:51;;;;;;;7.20;5.07;;;;;;;;;;5061591;28;20845;-73
2021/12/17 14:12:36;;;;;;;6.90;4.80;;;;;;;;;;5063013;28;20470;-73
2021/12/17 14:15:20;;;;;;;5.80;4.30;;;;;;;;;;5064069;28;20653;-72
2021/12/17 14:18:15;;;;;;;4.90;3.50;;;;;;;;;;5056989;28;20471;-73
2021/12/17 14:21:18;;;;;;;;;;;;;;;;;;;;;
2021/12/17 14:23:54;;;;;;;6.00;3.40;;;;;;;;;;5019490;28;20469;-73
2021/12/17 14:26:37;;;;;;;5.57;3.43;;;;;;;;;;5056340;28;20464;-74
2021/12/17 14:29:38;;;;;;;6.77;3.40;;;;;;;;;;5059213;28;20440;-72
2021/12/17 14:32:16;;;;;;;5.30;3.53;;;;;;;;;;5061710;28;20475;-74
2021/12/17 14:35:03;;;;;;;4.63;3.10;;;;;;;;;;5062455;28;20441;-74
2021/12/17 14:37:59;;;;;;;5.20;3.20;;;;;;;;;;5070588;28;20437;-73
2021/12/17 14:40:38;;;;;;;10.97;6.50;;;;;;;;;;5055572;28;20960;-74
2021/12/17 15:01:12;;;;;;;6.90;4.97;;;;;;;;;;5053568;28;20714;-73
2021/12/17 15:03:45;;;;;;;5.40;4.20;;;;;;;;;;5054917;28;20880;-73
2021/12/17 15:06:17;;;;;;;6.50;4.67;;;;;;;;;;5053945;28;20893;-73
2021/12/17 15:09:01;;;;;;;7.00;5.00;;;;;;;;;;5056194;28;20884;-73
2021/12/17 15:11:42;;;;;;;4.00;3.37;;;;;;;;;;5053712;28;20445;-73
2021/12/17 15:14:29;;;;;;;4.50;3.50;;;;;;;;;;5052864;28;20477;-72
2021/12/17 15:16:57;;;;;;;5.67;5.10;;;;;;;;;;5056016;28;20453;-72
2021/12/17 15:19:28;;;;;;;5.63;4.43;;;;;;;;;;5053773;28;20458;-72
2021/12/17 15:21:59;;;;;;;6.43;4.07;;;;;;;;;;5053865;28;20433;-74
2021/12/17 15:24:28;;;;;;;5.07;3.57;;;;;;;;;;5053452;28;20896;-73
2021/12/17 15:26:57;;;;;;;5.50;3.27;;;;;;;;;;5053624;28;20441;-72
2021/12/17 15:29:49;;;;;;;5.83;3.20;;;;;;;;;;5067778;28;20467;-73
2021/12/17 15:32:53;;;;;;;10.73;7.93;;;;;;;;;;5055292;28;20449;-73
2021/12/17 15:56:07;;;;;;;14.47;8.47;;;;;;;;;;5089015;28;20522;-75
2021/12/17 15:58:47;;;;;;;5.20;3.83;;;;;;;;;;5080347;28;20518;-73
2021/12/17 16:01:23;;;;;;;6.07;3.57;;;;;;;;;;5078583;28;20926;-74
2021/12/17 16:03:53;;;;;;;8.47;5.47;;;;;;;;;;5079417;28;20458;-73
2021/12/17 16:06:27;;;;;;;5.43;4.00;;;;;;;;;;5081712;28;20467;-74
2021/12/17 16:11:59;;;;;;;11.03;5.53;;;;;;;;;;5084755;28;20755;-74
2021/12/17 16:22:52;;;;;;;6.93;4.20;;;;;;;;;;5055249;28;20420;-74
2021/12/17 16:25:25;;;;;;;6.70;5.10;;;;;;;;;;5098573;28;20455;-74
2021/12/17 16:27:53;;;;;;;7.37;4.90;;;;;;;;;;5099831;28;20463;-73
2021/12/17 16:30:36;;;;;;;5.50;3.10;;;;;;;;;;5099365;28;20527;-74
2021/12/17 16:36:23;;;;;;;9.37;5.87;;;;;;;;;;5094653;28;20908;-74
2021/12/17 16:42:09;;;;;;;13.57;7.27;;;;;;;;;;5087688;28;20445;-74
2021/12/17 16:47:36;;;;;;;14.13;8.40;;;;;;;;;;4999740;28;20510;-74
2021/12/17 16:50:42;;;;;;;9.70;6.57;;;;;;;;;;5004367;28;20498;-73
2021/12/17 16:53:13;;;;;;;10.57;5.70;;;;;;;;;;5060594;28;21058;-73
2021/12/17 16:55:47;;;;;;;11.93;6.10;;;;;;;;;;5079773;28;20507;-73
2021/12/17 17:01:02;;;;;;;11.20;6.87;;;;;;;;;;5082219;28;20903;-73
2021/12/17 17:03:50;;;;;;;9.40;6.77;;;;;;;;;;5101449;27;20466;-73
2021/12/17 17:06:34;;;;;;;6.80;4.63;;;;;;;;;;5096557;27;20455;-73
2021/12/17 17:09:11;;;;;;;10.40;5.30;;;;;;;;;;5088893;28;20459;-73
2021/12/17 17:11:45;;;;;;;12.30;6.20;;;;;;;;;;5089948;28;20899;-73
2021/12/17 17:26:28;;;;;;;8.00;5.40;;;;;;;;;;5097094;28;21001;-75
2021/12/17 17:29:07;;;;;;;15.30;8.47;;;;;;;;;;5107268;28;20443;-73
2021/12/17 18:17:22;;;;;;;9.70;6.70;;;;;;;;;;4990894;28;20499;-73
2021/12/17 18:39:07;;;;;;;14.33;8.87;;;;;;;;;;4957233;28;20577;-74
2021/12/17 18:44:45;;;;;;;18.77;10.20;;;;;;;;;;4977249;28;20546;-73
2021/12/17 18:47:18;;;;;;;18.10;10.40;;;;;;;;;;4995248;28;20463;-73
2021/12/17 18:49:58;;;;;;;10.67;5.93;;;;;;;;;;4996554;28;20487;-72
2021/12/17 18:52:44;;;;;;;12.13;6.50;;;;;;;;;;4994554;28;20468;-74
2021/12/17 18:55:20;;;;;;;12.07;7.23;;;;;;;;;;4986100;28;20479;-73
2021/12/17 19:00:37;;;;;;;11.90;7.57;;;;;;;;;;5047953;28;20462;-73
2021/12/17 19:09:15;;;;;;;16.93;9.27;;;;;;;;;;5054877;28;20901;-73
2021/12/17 19:12:06;;;;;;;13.07;7.43;;;;;;;;;;5052296;28;20469;-73
2021/12/17 19:15:06;;;;;;;12.10;8.17;;;;;;;;;;5054883;28;20591;-73
2021/12/17 19:17:58;;;;;;;16.33;10.87;;;;;;;;;;5051542;28;20469;-72
2021/12/17 19:20:33;;;;;;;14.90;9.23;;;;;;;;;;5055802;28;20460;-72
2021/12/17 19:23:07;;;;;;;17.30;9.20;;;;;;;;;;5055441;28;20558;-73
2021/12/17 19:25:35;;;;;;;20.23;11.10;;;;;;;;;;5056700;28;20453;-72
2021/12/17 19:28:08;;;;;;;18.33;9.23;;;;;;;;;;5055520;28;20480;-78
2021/12/17 19:30:45;;;;;;;30.60;12.87;;;;;;;;;;5055648;28;20476;-73
2021/12/17 19:33:13;;;;;;;26.37;13.57;;;;;;;;;;5060960;28;20483;-73
2021/12/17 19:35:43;;;;;;;20.00;11.93;;;;;;;;;;5075660;28;20491;-73
2021/12/17 19:38:11;;;;;;;21.10;12.10;;;;;;;;;;5061270;28;20803;-73
2021/12/17 19:43:30;;;;;;;20.20;10.33;;;;;;;;;;5038364;28;20853;-74
2021/12/17 19:49:44;;;;;;;25.50;12.73;;;;;;;;;;5048120;28;20458;-74
2021/12/17 19:52:16;;;;;;;23.57;15.60;;;;;;;;;;5055618;28;20497;-73
2021/12/17 19:54:49;;;;;;;25.10;14.60;;;;;;;;;;5055156;28;20507;-73
2021/12/17 19:57:20;;;;;;;21.63;11.90;;;;;;;;;;5075525;28;20448;-72
2021/12/17 20:02:51;;;;;;;22.97;13.03;;;;;;;;;;5071875;28;20491;-74
2021/12/17 20:05:26;;;;;;;16.70;9.50;;;;;;;;;;5076783;28;21097;-73
2021/12/17 20:08:08;;;;;;;17.50;10.13;;;;;;;;;;5063611;28;20461;-72
2021/12/17 20:10:44;;;;;;;21.43;11.60;;;;;;;;;;5056570;28;20461;-75
2021/12/17 20:13:13;;;;;;;23.33;12.20;;;;;;;;;;5056051;28;20481;-73
2021/12/17 20:15:46;;;;;;;20.80;11.07;;;;;;;;;;5066358;28;20589;-75
2021/12/17 20:18:22;;;;;;;23.07;13.07;;;;;;;;;;5075834;28;21097;-74
2021/12/17 20:20:50;;;;;;;25.50;14.03;;;;;;;;;;5075671;28;20452;-74
2021/12/17 20:23:26;;;;;;;27.30;14.30;;;;;;;;;;5076047;28;20522;-74
2021/12/17 20:25:55;;;;;;;20.73;12.43;;;;;;;;;;5076132;28;20563;-74
2021/12/17 20:28:25;;;;;;;19.70;13.73;;;;;;;;;;5067211;28;20462;-73
2021/12/17 20:30:54;;;;;;;27.43;14.47;;;;;;;;;;5061649;28;20544;-74
2021/12/17 20:33:22;;;;;;;24.20;12.37;;;;;;;;;;5076628;28;20457;-73
2021/12/17 20:35:55;;;;;;;20.80;10.50;;;;;;;;;;5078059;28;20835;-74
2021/12/17 20:38:25;;;;;;;18.53;11.23;;;;;;;;;;5080271;28;20852;-73
2021/12/17 20:41:02;;;;;;;20.10;12.20;;;;;;;;;;5080712;28;20464;-73
2021/12/17 20:43:42;;;;;;;18.83;7.77;;;;;;;;;;5061797;28;20457;-73
2021/12/17 20:46:16;;;;;;;17.17;10.40;;;;;;;;;;5061443;28;20512;-74
2021/12/17 20:48:51;;;;;;;24.57;12.70;;;;;;;;;;5061694;28;20507;-73
2021/12/17 20:51:26;;;;;;;18.40;11.00;;;;;;;;;;5067263;28;20463;-74
2021/12/17 20:53:55;;;;;;;22.40;12.03;;;;;;;;;;5063660;28;20460;-73
2021/12/17 20:56:23;;;;;;;12.97;8.57;;;;;;;;;;5061327;28;20473;-73
2021/12/17 20:58:53;;;;;;;17.50;10.40;;;;;;;;;;5061344;28;20465;-74
2021/12/17 21:01:21;;;;;;;21.07;11.90;;;;;;;;;;5060881;28;20446;-74
2021/12/17 21:03:49;;;;;;;22.70;11.83;;;;;;;;;;5061058;28;20464;-74
2021/12/17 21:06:17;;;;;;;17.50;11.10;;;;;;;;;;5075858;28;20468;-74
2021/12/17 21:08:58;;;;;;;25.00;11.23;;;;;;;;;;5077982;28;20532;-74